Terminal Aerodrome Forecast
Issued by NWS New Orleans/Baton Rouge, LA

Home | Current Version | Previous Version | Text Only | Print | Product List | Glossary On
Versions: 1 2 3 4 5 6 7 8 9 10 11 12 13 14 15
000
FTUS44 KLIX 291738 CCA
TAFBTR
TAF COR
KBTR 291738Z 2918/3018 08008KT P6SM FEW040 BKN250
      TEMPO 2919/2923 3SM TSRA BKN030CB
     FM300000 12007KT P6SM SCT050 BKN250
     FM300600 VRB03KT P6SM SCT250
     FM301600 07008KT P6SM SCT050 SCT250=

USA.gov is the U.S. government's official web portal to all federal, state and local government web resources and services.